Time;durP1;ratioP1;P1;durP2;ratioP2;P2;SDS_P1;SDS_P2;PMS_P1;PMS_P2;Temp;Humidity;BMP_temperature;BMP_pressure;BME280_temperature;BME280_humidity;BME280_pressure;Samples;Min_cycle;Max_cycle;Signal;HPM_P1;HPM_P2
2021/08/09 00:00:32;;;;;;;1.97;1.87;;;17.70;99.90;;;;;;4996431;28;20595;-72
2021/08/09 00:02:59;;;;;;;1.40;1.40;;;17.70;99.90;;;;;;5012602;28;20446;-71
2021/08/09 00:05:26;;;;;;;1.80;1.70;;;17.70;99.90;;;;;;4984130;28;20474;-73
2021/08/09 00:07:53;;;;;;;1.73;1.50;;;17.70;99.90;;;;;;4983718;28;20829;-72
2021/08/09 00:10:21;;;;;;;2.17;1.70;;;17.80;99.90;;;;;;4997166;28;20443;-72
2021/08/09 00:12:48;;;;;;;1.60;1.50;;;18.00;99.90;;;;;;4995682;28;20497;-71
2021/08/09 00:15:15;;;;;;;1.83;1.73;;;18.10;99.90;;;;;;5013653;28;20662;-71
2021/08/09 00:17:42;;;;;;;3.80;1.93;;;17.90;99.90;;;;;;4996585;28;20893;-73
2021/08/09 00:20:11;;;;;;;1.67;1.60;;;17.80;99.90;;;;;;4988640;28;20439;-71
2021/08/09 00:22:39;;;;;;;1.50;1.40;;;17.80;99.90;;;;;;4992813;28;20447;-71
2021/08/09 00:25:07;;;;;;;1.50;1.40;;;17.80;99.90;;;;;;4993485;28;20438;-71
2021/08/09 00:27:34;;;;;;;1.90;1.70;;;18.00;99.90;;;;;;4987511;28;20478;-71
2021/08/09 00:30:02;;;;;;;2.33;2.23;;;18.10;99.90;;;;;;4999127;28;20501;-72
2021/08/09 00:32:29;;;;;;;1.60;1.50;;;17.90;99.90;;;;;;5008620;28;20435;-71
2021/08/09 00:34:56;;;;;;;1.73;1.63;;;17.90;99.90;;;;;;4996669;28;20439;-72
2021/08/09 00:37:23;;;;;;;1.50;1.50;;;17.70;99.90;;;;;;4997104;28;20468;-72
2021/08/09 00:39:50;;;;;;;1.50;1.40;;;17.60;99.90;;;;;;4997188;28;20686;-70
2021/08/09 00:42:17;;;;;;;1.63;1.40;;;17.40;99.90;;;;;;4999163;28;20450;-72
2021/08/09 00:44:44;;;;;;;1.53;1.43;;;17.40;99.90;;;;;;4996843;28;20417;-72
2021/08/09 00:47:11;;;;;;;1.77;1.67;;;17.40;99.90;;;;;;4999017;28;20471;-71
2021/08/09 00:49:38;;;;;;;2.33;2.13;;;17.30;99.90;;;;;;5002947;28;20414;-71
2021/08/09 00:52:06;;;;;;;2.50;1.90;;;17.30;99.90;;;;;;5003262;28;20437;-71
2021/08/09 00:54:33;;;;;;;1.37;1.37;;;17.20;99.90;;;;;;5000742;28;20432;-72
2021/08/09 00:57:04;;;;;;;1.87;1.77;;;17.10;99.90;;;;;;5000302;28;20450;-72
2021/08/09 00:59:31;;;;;;;1.80;1.70;;;17.10;99.90;;;;;;5000961;28;20447;-72
2021/08/09 01:01:58;;;;;;;1.50;1.40;;;17.10;99.90;;;;;;5002641;28;20466;-72
2021/08/09 01:04:25;;;;;;;2.50;1.60;;;16.90;99.90;;;;;;5002511;28;20519;-71
2021/08/09 01:06:53;;;;;;;1.53;1.47;;;16.90;99.90;;;;;;4999322;28;20435;-71
2021/08/09 01:09:30;;;;;;;2.40;1.80;;;17.00;99.90;;;;;;4999719;28;20438;-71
2021/08/09 01:12:10;;;;;;;1.50;1.40;;;16.90;99.90;;;;;;5000471;28;20481;-71
2021/08/09 01:15:01;;;;;;;1.77;1.67;;;16.80;99.90;;;;;;4999807;28;20435;-72
2021/08/09 01:17:35;;;;;;;1.70;1.60;;;16.80;99.90;;;;;;5000153;28;20444;-71
2021/08/09 01:20:20;;;;;;;1.57;1.47;;;16.70;99.90;;;;;;5000891;28;20441;-72
2021/08/09 01:23:07;;;;;;;1.37;1.33;;;16.60;99.90;;;;;;5000595;28;20470;-72
2021/08/09 01:26:12;;;;;;;1.60;1.50;;;16.60;99.90;;;;;;5000194;28;20478;-71
2021/08/09 01:28:40;;;;;;;1.60;1.50;;;16.40;99.90;;;;;;4990420;28;20480;-73
2021/08/09 01:31:07;;;;;;;1.60;1.50;;;16.30;99.90;;;;;;4995771;28;20466;-72
2021/08/09 01:33:36;;;;;;;1.80;1.70;;;16.40;99.90;;;;;;5000270;28;20476;-70
2021/08/09 01:36:04;;;;;;;1.87;1.77;;;16.40;99.90;;;;;;5000665;28;20442;-71
2021/08/09 01:38:33;;;;;;;1.47;1.37;;;16.50;99.90;;;;;;5000015;28;20486;-72
2021/08/09 01:41:01;;;;;;;2.30;2.10;;;16.50;99.90;;;;;;5000061;28;20435;-72
2021/08/09 01:43:29;;;;;;;2.07;1.97;;;16.50;99.90;;;;;;5001374;28;20512;-71
2021/08/09 01:45:57;;;;;;;1.60;1.50;;;16.60;99.90;;;;;;5000063;28;20441;-71
2021/08/09 01:48:26;;;;;;;1.60;1.50;;;16.70;99.90;;;;;;4998635;28;20500;-71
2021/08/09 01:50:55;;;;;;;1.90;1.50;;;16.70;99.90;;;;;;4987632;28;20480;-71
2021/08/09 01:53:24;;;;;;;1.83;1.73;;;16.50;99.90;;;;;;4999695;28;20643;-71
2021/08/09 01:55:51;;;;;;;1.40;1.30;;;16.50;99.90;;;;;;5016670;28;20508;-72
2021/08/09 01:58:19;;;;;;;1.27;1.27;;;16.50;99.90;;;;;;4987756;28;20468;-73
2021/08/09 02:00:46;;;;;;;3.05;1.95;;;16.60;99.90;;;;;;5002711;28;20463;-72
2021/08/09 02:03:15;;;;;;;1.47;1.37;;;16.40;99.90;;;;;;4999540;28;20208;-71
2021/08/09 02:05:42;;;;;;;1.30;1.30;;;16.10;99.90;;;;;;4993839;28;20470;-71
2021/08/09 02:08:13;;;;;;;1.30;1.20;;;16.30;99.90;;;;;;4986798;28;20529;-70
2021/08/09 02:10:41;;;;;;;1.80;1.70;;;16.20;99.90;;;;;;4979303;28;20447;-71
2021/08/09 02:13:39;;;;;;;1.80;1.70;;;16.40;99.90;;;;;;4986872;28;20466;-71
2021/08/09 02:16:19;;;;;;;1.70;1.60;;;16.30;99.90;;;;;;4998546;28;20494;-70
2021/08/09 02:18:58;;;;;;;1.57;1.47;;;16.10;99.90;;;;;;4999362;28;20451;-72
2021/08/09 02:21:49;;;;;;;1.90;1.70;;;16.00;99.90;;;;;;4980383;28;20465;-72
2021/08/09 02:24:35;;;;;;;1.43;1.33;;;16.00;99.90;;;;;;5007128;28;20432;-71
2021/08/09 02:27:10;;;;;;;4.20;1.50;;;16.10;99.90;;;;;;4999433;28;20456;-72
2021/08/09 02:29:40;;;;;;;1.43;1.33;;;16.00;99.90;;;;;;4993183;28;20441;-71
2021/08/09 02:32:08;;;;;;;1.90;1.80;;;15.90;99.90;;;;;;4989481;28;20448;-71
2021/08/09 02:34:37;;;;;;;5.85;1.98;;;15.80;99.90;;;;;;4982982;28;20564;-72
2021/08/09 02:37:05;;;;;;;2.00;1.77;;;15.90;99.90;;;;;;4987156;28;20385;-72
2021/08/09 02:39:33;;;;;;;3.17;1.55;;;15.40;99.90;;;;;;4998873;28;20444;-70
2021/08/09 02:42:01;;;;;;;1.40;1.35;;;15.80;99.90;;;;;;4985167;28;20249;-70
2021/08/09 02:44:29;;;;;;;1.60;1.50;;;15.80;99.90;;;;;;4985949;28;20254;-71
2021/08/09 02:46:59;;;;;;;2.05;1.73;;;16.00;99.90;;;;;;4997122;28;20413;-71
2021/08/09 02:49:26;;;;;;;1.55;1.45;;;15.90;99.90;;;;;;4998876;28;20226;-71
2021/08/09 02:51:54;;;;;;;1.42;1.33;;;15.90;99.90;;;;;;4998215;28;20203;-71
2021/08/09 02:54:21;;;;;;;1.42;1.33;;;15.80;99.90;;;;;;4998605;28;20208;-70
2021/08/09 02:56:50;;;;;;;1.90;1.80;;;15.70;99.90;;;;;;4997987;28;20253;-73
2021/08/09 02:59:17;;;;;;;1.80;1.70;;;15.90;99.90;;;;;;4998513;28;20501;-70
2021/08/09 03:01:44;;;;;;;1.98;1.88;;;15.70;99.90;;;;;;4998140;28;20311;-71
2021/08/09 03:04:15;;;;;;;1.83;1.73;;;15.80;99.90;;;;;;4998385;28;20720;-70
2021/08/09 03:06:43;;;;;;;2.63;1.60;;;15.80;99.90;;;;;;4996183;28;20195;-72
2021/08/09 03:09:10;;;;;;;1.55;1.48;;;15.80;99.90;;;;;;4998228;28;20230;-70
2021/08/09 03:11:41;;;;;;;4.80;1.80;;;15.80;99.90;;;;;;4998316;28;20524;-70
2021/08/09 03:14:21;;;;;;;1.80;1.70;;;15.90;99.90;;;;;;5011248;28;20429;-71
2021/08/09 03:16:49;;;;;;;2.78;1.85;;;15.80;99.90;;;;;;4998493;28;20238;-72
2021/08/09 03:19:16;;;;;;;1.52;1.42;;;15.70;99.90;;;;;;4997688;28;20205;-70
2021/08/09 03:21:55;;;;;;;1.95;1.50;;;15.60;99.90;;;;;;5003234;28;20444;-71
2021/08/09 03:24:23;;;;;;;2.08;1.88;;;15.50;99.90;;;;;;4995588;28;20197;-70
2021/08/09 03:26:51;;;;;;;1.67;1.60;;;15.50;99.90;;;;;;4997569;28;20232;-70
2021/08/09 03:29:18;;;;;;;1.70;1.60;;;15.60;99.90;;;;;;5006261;28;20225;-72
2021/08/09 03:31:46;;;;;;;1.67;1.58;;;15.40;99.90;;;;;;4996808;28;20514;-70
2021/08/09 03:34:13;;;;;;;1.63;1.52;;;15.40;99.90;;;;;;4991691;28;20345;-69
2021/08/09 03:36:47;;;;;;;2.55;1.67;;;15.30;99.90;;;;;;4999830;28;20205;-71
2021/08/09 03:39:14;;;;;;;2.10;1.50;;;15.30;99.90;;;;;;5003661;28;20205;-71
2021/08/09 03:41:41;;;;;;;2.40;1.70;;;15.40;99.90;;;;;;4997443;28;20198;-72
2021/08/09 03:44:09;;;;;;;2.65;1.85;;;15.40;99.90;;;;;;4996631;28;20205;-69
2021/08/09 03:46:36;;;;;;;2.17;2.05;;;15.40;99.90;;;;;;4985963;28;20202;-71
2021/08/09 03:49:07;;;;;;;1.60;1.50;;;15.40;99.90;;;;;;4997802;28;20262;-71
2021/08/09 03:51:38;;;;;;;3.08;2.22;;;15.40;99.90;;;;;;4998972;28;20207;-71
2021/08/09 03:54:06;;;;;;;1.55;1.45;;;15.30;99.90;;;;;;4995477;28;20231;-71
2021/08/09 03:56:34;;;;;;;2.22;1.67;;;15.20;99.90;;;;;;4995635;28;20218;-70
2021/08/09 03:59:02;;;;;;;2.65;1.75;;;15.20;99.90;;;;;;5000360;28;20202;-71
2021/08/09 04:01:29;;;;;;;2.00;1.90;;;15.40;99.90;;;;;;4999868;28;20200;-70
2021/08/09 04:03:56;;;;;;;2.00;1.80;;;15.50;99.90;;;;;;5000408;28;20257;-70
2021/08/09 04:06:23;;;;;;;2.03;1.92;;;15.60;99.90;;;;;;4987178;28;20247;-70
2021/08/09 04:08:50;;;;;;;2.25;2.15;;;15.60;99.90;;;;;;4998659;28;20456;-70
2021/08/09 04:11:17;;;;;;;3.00;2.45;;;15.60;99.90;;;;;;5014444;28;20205;-70
2021/08/09 04:13:44;;;;;;;8.70;1.98;;;15.70;99.90;;;;;;5009270;28;20202;-70
2021/08/09 04:16:11;;;;;;;1.77;1.67;;;15.80;99.90;;;;;;5008579;28;20208;-71
2021/08/09 04:18:39;;;;;;;2.00;1.77;;;15.90;99.90;;;;;;4997332;28;20357;-69
2021/08/09 04:21:06;;;;;;;2.30;1.75;;;15.90;99.90;;;;;;4982607;28;20201;-70
2021/08/09 04:23:33;;;;;;;2.10;1.90;;;16.10;99.90;;;;;;4991752;28;20205;-69
2021/08/09 04:26:00;;;;;;;3.33;1.88;;;16.00;99.90;;;;;;4996977;28;20278;-69
2021/08/09 04:28:27;;;;;;;2.22;2.00;;;16.10;99.90;;;;;;5006046;28;20517;-70
2021/08/09 04:30:54;;;;;;;3.10;2.28;;;16.10;99.90;;;;;;4997515;28;20311;-69
2021/08/09 04:33:21;;;;;;;4.30;2.43;;;16.40;99.90;;;;;;5005102;28;20282;-69
2021/08/09 04:35:56;;;;;;;4.20;2.20;;;16.50;99.90;;;;;;5006970;28;20451;-70
2021/08/09 04:38:23;;;;;;;5.33;2.80;;;16.60;99.90;;;;;;5000026;28;20448;-69
2021/08/09 04:40:50;;;;;;;4.27;2.17;;;16.60;99.90;;;;;;5022405;28;20780;-69
2021/08/09 04:43:17;;;;;;;2.80;2.13;;;16.80;99.90;;;;;;5002292;28;20447;-70
2021/08/09 04:45:45;;;;;;;8.13;2.47;;;16.90;99.90;;;;;;4991691;28;20440;-69
2021/08/09 04:48:12;;;;;;;2.07;1.97;;;17.10;99.90;;;;;;5010209;28;20480;-70
2021/08/09 04:50:39;;;;;;;2.13;1.90;;;17.20;99.90;;;;;;5012801;28;20441;-69
2021/08/09 04:53:08;;;;;;;4.53;2.07;;;17.30;99.90;;;;;;4999063;28;20442;-69
2021/08/09 04:55:36;;;;;;;1.63;1.53;;;17.40;99.90;;;;;;5003720;28;20466;-68
2021/08/09 04:58:05;;;;;;;2.93;2.70;;;17.30;99.90;;;;;;4996955;28;21022;-71
2021/08/09 05:00:32;;;;;;;2.27;2.07;;;17.70;99.90;;;;;;4992905;28;20787;-70
2021/08/09 05:02:59;;;;;;;2.20;2.10;;;17.70;99.90;;;;;;4995934;28;20458;-69
2021/08/09 05:05:27;;;;;;;2.50;2.30;;;17.80;99.90;;;;;;4981479;28;20471;-70
2021/08/09 05:07:58;;;;;;;3.03;2.03;;;17.80;99.90;;;;;;5004031;28;20520;-70
2021/08/09 05:10:26;;;;;;;2.87;2.67;;;17.80;99.90;;;;;;5010626;28;20443;-70
2021/08/09 05:12:53;;;;;;;2.80;2.60;;;18.00;99.90;;;;;;5002690;28;20439;-71
2021/08/09 05:15:24;;;;;;;3.13;2.30;;;18.10;99.90;;;;;;4990217;28;20753;-71
2021/08/09 05:17:52;;;;;;;1.93;1.83;;;18.30;99.90;;;;;;4990827;28;20436;-69
2021/08/09 05:20:20;;;;;;;2.40;2.30;;;18.50;99.90;;;;;;4989267;28;20524;-71
2021/08/09 05:22:47;;;;;;;4.43;2.20;;;18.70;99.90;;;;;;4992334;28;20444;-69
2021/08/09 05:25:14;;;;;;;2.53;2.33;;;18.70;99.90;;;;;;4992078;28;20443;-69
2021/08/09 05:27:42;;;;;;;2.90;2.50;;;18.90;99.90;;;;;;4993541;28;20657;-70
2021/08/09 05:30:10;;;;;;;2.70;2.50;;;18.90;99.90;;;;;;4997202;28;20536;-69
2021/08/09 05:32:38;;;;;;;3.17;2.13;;;19.00;99.90;;;;;;4995624;28;20454;-69
2021/08/09 05:35:07;;;;;;;3.27;2.97;;;19.20;99.90;;;;;;4998827;28;20460;-70
2021/08/09 05:37:35;;;;;;;2.20;2.10;;;19.10;99.90;;;;;;4995687;28;20653;-70
2021/08/09 05:40:05;;;;;;;3.10;2.90;;;19.20;99.90;;;;;;4994374;28;20506;-69
2021/08/09 05:42:32;;;;;;;2.87;2.70;;;19.30;99.90;;;;;;4981185;28;20828;-69
2021/08/09 05:44:59;;;;;;;2.60;2.50;;;19.40;99.90;;;;;;4994033;28;20415;-70
2021/08/09 05:47:26;;;;;;;3.50;3.30;;;19.40;99.90;;;;;;4992323;28;20439;-69
2021/08/09 05:49:54;;;;;;;3.57;2.80;;;19.50;99.90;;;;;;4999487;28;20518;-70
2021/08/09 05:52:25;;;;;;;4.10;3.30;;;19.60;99.90;;;;;;4999927;28;20409;-69
2021/08/09 05:54:52;;;;;;;2.80;2.70;;;19.70;99.90;;;;;;4999893;28;20431;-70
2021/08/09 05:57:20;;;;;;;2.70;2.60;;;20.10;99.90;;;;;;4999910;28;20435;-69
2021/08/09 05:59:47;;;;;;;3.20;3.03;;;20.30;99.90;;;;;;4999465;28;20447;-70
2021/08/09 06:02:14;;;;;;;3.20;2.90;;;20.50;99.90;;;;;;4999532;28;20413;-70
2021/08/09 06:04:41;;;;;;;3.13;3.00;;;20.70;99.90;;;;;;4987722;28;20450;-71
2021/08/09 06:07:16;;;;;;;2.73;2.63;;;20.80;99.90;;;;;;4996396;28;20440;-70
2021/08/09 06:09:44;;;;;;;3.20;3.00;;;21.20;99.90;;;;;;4991804;28;20534;-71
2021/08/09 06:12:12;;;;;;;3.87;3.57;;;21.50;99.90;;;;;;5012604;28;20447;-71
2021/08/09 06:14:39;;;;;;;3.60;3.40;;;21.70;99.90;;;;;;5010070;28;20424;-69
2021/08/09 06:17:07;;;;;;;3.83;3.57;;;21.90;99.90;;;;;;5010127;28;20414;-71
2021/08/09 06:19:35;;;;;;;29.67;4.07;;;22.00;99.90;;;;;;4988266;28;20512;-70
2021/08/09 06:22:04;;;;;;;3.80;3.60;;;22.20;99.90;;;;;;5010742;28;20475;-69
2021/08/09 06:24:32;;;;;;;4.17;3.97;;;22.90;99.90;;;;;;4990875;28;20452;-69
2021/08/09 06:26:59;;;;;;;4.30;4.00;;;23.40;99.90;;;;;;4995048;28;20435;-70
2021/08/09 06:29:26;;;;;;;4.77;4.50;;;23.70;98.40;;;;;;5002635;28;20486;-69
2021/08/09 06:31:54;;;;;;;4.87;4.57;;;24.20;96.60;;;;;;5017332;28;20647;-69
2021/08/09 06:34:21;;;;;;;5.40;5.10;;;24.80;95.50;;;;;;5010692;28;20564;-69
2021/08/09 06:36:48;;;;;;;5.20;4.80;;;25.40;93.50;;;;;;4996633;28;20413;-69
2021/08/09 06:39:19;;;;;;;5.20;5.00;;;26.30;92.20;;;;;;5013677;28;20461;-70
2021/08/09 06:41:49;;;;;;;5.53;5.33;;;27.10;90.30;;;;;;4980562;28;20698;-70
2021/08/09 06:44:16;;;;;;;5.77;5.47;;;27.20;89.60;;;;;;4995570;28;20754;-70
2021/08/09 06:46:44;;;;;;;5.70;5.50;;;27.30;89.60;;;;;;4993157;28;20461;-69
2021/08/09 06:49:11;;;;;;;6.00;5.80;;;28.40;86.20;;;;;;5017013;28;20470;-69
2021/08/09 06:51:38;;;;;;;6.27;5.97;;;28.70;82.30;;;;;;5009035;28;20411;-69
2021/08/09 06:54:05;;;;;;;6.10;5.90;;;29.60;79.60;;;;;;5001523;28;20434;-68
2021/08/09 06:56:32;;;;;;;6.97;6.77;;;30.60;75.20;;;;;;5014338;28;20410;-70
2021/08/09 06:59:03;;;;;;;7.50;7.10;;;31.50;71.20;;;;;;5008546;28;20454;-69
2021/08/09 07:01:31;;;;;;;7.80;7.40;;;32.20;69.00;;;;;;5016381;28;20642;-70
2021/08/09 07:03:59;;;;;;;9.37;8.97;;;33.60;63.50;;;;;;5018231;28;20435;-71
2021/08/09 07:06:26;;;;;;;8.23;7.77;;;33.80;61.60;;;;;;4990311;28;20443;-69
2021/08/09 07:08:54;;;;;;;8.43;8.03;;;34.60;59.10;;;;;;4998810;28;20490;-69
2021/08/09 07:11:21;;;;;;;8.50;8.10;;;34.60;56.80;;;;;;4991549;28;20484;-69
2021/08/09 07:13:51;;;;;;;8.47;8.17;;;35.80;54.70;;;;;;4994119;28;20436;-70
2021/08/09 07:16:23;;;;;;;9.13;8.83;;;36.30;54.20;;;;;;5035997;28;20479;-70
2021/08/09 07:18:54;;;;;;;9.23;8.93;;;38.10;51.80;;;;;;4992685;28;20689;-68
2021/08/09 07:21:21;;;;;;;10.40;10.00;;;38.70;49.00;;;;;;4993213;28;20445;-67
2021/08/09 07:23:48;;;;;;;9.50;9.20;;;38.90;47.40;;;;;;5006375;28;20521;-69
2021/08/09 07:26:15;;;;;;;9.30;9.00;;;38.80;47.20;;;;;;4979873;28;20632;-69
2021/08/09 07:28:42;;;;;;;9.10;8.80;;;39.60;45.40;;;;;;5003845;28;20485;-69
2021/08/09 07:31:09;;;;;;;9.83;9.47;;;39.70;44.20;;;;;;4997167;28;20447;-70
2021/08/09 07:33:37;;;;;;;10.10;9.70;;;38.60;45.10;;;;;;4989506;28;20440;-68
2021/08/09 07:36:05;;;;;;;10.90;10.50;;;38.70;45.30;;;;;;4995499;28;20462;-68
2021/08/09 07:38:33;;;;;;;10.43;10.00;;;39.20;45.10;;;;;;4998189;28;20983;-68
2021/08/09 07:41:00;;;;;;;10.53;9.93;;;40.20;43.90;;;;;;4999466;28;20435;-68
2021/08/09 07:43:28;;;;;;;9.63;9.33;;;39.70;42.40;;;;;;4999270;28;20464;-68
2021/08/09 07:45:55;;;;;;;10.60;10.20;;;38.20;43.80;;;;;;4998919;28;20495;-68
2021/08/09 07:48:22;;;;;;;9.90;9.20;;;38.00;44.70;;;;;;5000032;28;20467;-69
2021/08/09 07:50:49;;;;;;;10.20;9.80;;;36.30;46.70;;;;;;4997420;28;20479;-70
2021/08/09 07:53:16;;;;;;;9.67;9.30;;;38.10;44.80;;;;;;4998841;28;20490;-67
2021/08/09 07:55:43;;;;;;;9.80;9.23;;;38.90;44.50;;;;;;4996902;28;20447;-68
2021/08/09 07:58:11;;;;;;;9.20;8.90;;;38.70;43.10;;;;;;4999284;28;20499;-68
2021/08/09 08:00:39;;;;;;;10.57;10.17;;;39.20;42.20;;;;;;4982331;28;20888;-70
2021/08/09 08:03:07;;;;;;;9.50;9.20;;;39.20;42.70;;;;;;4979488;28;20444;-67
2021/08/09 08:05:34;;;;;;;9.80;9.50;;;40.10;40.70;;;;;;4992162;28;20464;-68
2021/08/09 08:08:01;;;;;;;10.10;9.80;;;40.50;40.70;;;;;;4995098;28;20436;-68
2021/08/09 08:10:28;;;;;;;9.57;9.27;;;40.20;40.40;;;;;;4977712;28;20718;-67
2021/08/09 08:12:55;;;;;;;10.30;9.90;;;39.60;40.90;;;;;;4982445;28;20436;-68
2021/08/09 08:15:22;;;;;;;10.50;10.10;;;40.90;40.40;;;;;;4982527;28;20479;-68
2021/08/09 08:17:49;;;;;;;9.57;9.27;;;41.20;39.40;;;;;;4985654;28;20441;-68
2021/08/09 08:20:17;;;;;;;10.23;9.83;;;40.80;40.70;;;;;;4982818;28;20440;-68
2021/08/09 08:22:44;;;;;;;10.37;9.97;;;41.30;39.60;;;;;;4999180;28;20431;-68
2021/08/09 08:25:12;;;;;;;11.60;10.47;;;41.60;38.30;;;;;;4980458;28;20483;-69
2021/08/09 08:27:39;;;;;;;10.90;10.30;;;41.90;37.90;;;;;;4983547;28;20489;-68
2021/08/09 08:30:07;;;;;;;10.17;9.87;;;42.60;36.80;;;;;;4979720;28;20798;-68
2021/08/09 08:32:49;;;;;;;10.37;9.90;;;42.70;36.60;;;;;;4995772;28;20435;-68
2021/08/09 08:35:16;;;;;;;10.37;9.83;;;42.60;36.30;;;;;;5001202;28;20545;-68
2021/08/09 08:37:43;;;;;;;11.00;10.60;;;41.70;36.70;;;;;;4982182;28;20432;-69
2021/08/09 08:40:13;;;;;;;9.80;9.50;;;40.30;38.70;;;;;;4990195;28;20679;-67
2021/08/09 08:42:40;;;;;;;11.93;11.23;;;40.30;38.40;;;;;;5007778;28;20449;-69
2021/08/09 08:45:08;;;;;;;11.10;10.80;;;41.00;37.20;;;;;;5007868;28;21004;-69
2021/08/09 08:47:36;;;;;;;10.60;10.20;;;41.60;36.80;;;;;;5013020;28;20438;-69
2021/08/09 08:50:04;;;;;;;9.40;9.10;;;42.60;35.40;;;;;;4996392;28;20480;-69
2021/08/09 08:52:31;;;;;;;10.97;10.40;;;41.70;35.40;;;;;;4999002;28;20481;-69
2021/08/09 08:54:58;;;;;;;10.20;9.80;;;40.20;36.40;;;;;;4991222;28;20482;-68
2021/08/09 08:57:25;;;;;;;9.00;8.70;;;39.30;37.70;;;;;;4995799;28;20450;-67
2021/08/09 08:59:52;;;;;;;10.20;9.70;;;39.70;37.30;;;;;;4996203;28;20446;-69
2021/08/09 09:02:33;;;;;;;9.57;9.27;;;39.60;37.30;;;;;;4996569;28;20486;-68
2021/08/09 09:05:11;;;;;;;10.13;9.43;;;40.60;36.30;;;;;;4993485;28;20545;-70
2021/08/09 09:07:40;;;;;;;9.43;9.03;;;41.40;35.50;;;;;;4994264;28;20567;-69
2021/08/09 09:10:17;;;;;;;9.17;8.77;;;40.80;35.10;;;;;;5000340;28;20706;-69
2021/08/09 09:13:14;;;;;;;9.97;9.57;;;41.60;35.70;;;;;;4987419;28;20435;-68
2021/08/09 09:15:59;;;;;;;9.63;9.20;;;40.60;36.60;;;;;;5002935;28;20431;-67
2021/08/09 09:18:43;;;;;;;10.20;9.60;;;41.30;35.60;;;;;;5035127;28;20701;-69
2021/08/09 09:21:35;;;;;;;9.33;8.93;;;41.60;35.40;;;;;;4998709;28;20498;-68
2021/08/09 09:24:10;;;;;;;9.30;8.90;;;40.80;35.70;;;;;;5004389;28;20430;-67
2021/08/09 09:26:39;;;;;;;9.50;9.10;;;40.20;36.50;;;;;;5000907;28;20455;-70
2021/08/09 09:29:12;;;;;;;9.40;9.10;;;39.70;37.60;;;;;;5007771;28;20434;-68
2021/08/09 09:31:41;;;;;;;9.00;8.70;;;39.20;37.20;;;;;;4997363;28;20869;-68
2021/08/09 09:34:15;;;;;;;9.27;8.97;;;38.00;38.50;;;;;;5034445;28;20486;-68
2021/08/09 09:36:52;;;;;;;9.67;9.37;;;36.60;40.90;;;;;;4984423;28;20455;-71
2021/08/09 09:39:34;;;;;;;9.30;9.00;;;34.90;42.50;;;;;;4986866;28;20551;-65
2021/08/09 09:42:11;;;;;;;8.40;8.10;;;33.40;43.70;;;;;;4988617;28;20443;-66
2021/08/09 09:44:40;;;;;;;9.23;8.83;;;32.10;45.60;;;;;;4995010;28;20447;-67
2021/08/09 09:47:27;;;;;;;8.93;8.23;;;30.30;48.10;;;;;;4997859;28;20522;-66
2021/08/09 09:49:56;;;;;;;8.03;7.70;;;29.40;49.40;;;;;;4993767;28;20548;-69
2021/08/09 09:52:34;;;;;;;7.70;7.40;;;28.60;51.30;;;;;;4994030;28;20436;-70
2021/08/09 09:55:05;;;;;;;7.80;7.50;;;28.10;52.30;;;;;;5005282;28;20418;-70
2021/08/09 09:57:34;;;;;;;7.87;7.43;;;28.00;53.10;;;;;;4991186;28;20453;-69
2021/08/09 10:00:03;;;;;;;6.93;6.73;;;28.10;52.80;;;;;;4997441;28;20443;-68
2021/08/09 10:02:32;;;;;;;7.03;6.73;;;28.00;52.70;;;;;;4998801;28;20681;-68
2021/08/09 10:05:00;;;;;;;7.40;7.10;;;28.00;54.10;;;;;;4991666;28;20789;-67
2021/08/09 10:07:29;;;;;;;6.53;6.33;;;27.90;53.30;;;;;;5014827;28;20449;-67
2021/08/09 10:09:59;;;;;;;7.27;7.00;;;27.90;53.70;;;;;;4998642;28;20644;-68
2021/08/09 10:12:30;;;;;;;7.60;7.20;;;27.70;54.10;;;;;;4997361;28;20587;-68
2021/08/09 10:14:58;;;;;;;7.70;7.40;;;27.20;54.90;;;;;;4998857;28;20482;-68
2021/08/09 10:17:30;;;;;;;6.80;6.60;;;27.20;55.00;;;;;;4998173;28;20803;-68
2021/08/09 10:20:06;;;;;;;7.47;6.87;;;27.20;53.30;;;;;;4992703;28;20442;-68
2021/08/09 10:22:34;;;;;;;6.80;6.60;;;26.80;55.40;;;;;;4997238;28;20503;-69
2021/08/09 10:25:02;;;;;;;7.30;6.77;;;26.70;54.70;;;;;;5006381;28;20417;-69
2021/08/09 10:27:47;;;;;;;6.23;5.97;;;26.60;54.80;;;;;;4999915;28;20513;-69
2021/08/09 10:30:21;;;;;;;6.93;6.63;;;26.60;55.70;;;;;;5004903;28;20579;-68
2021/08/09 10:32:52;;;;;;;8.03;7.60;;;26.60;56.20;;;;;;5040170;28;20412;-66
2021/08/09 10:35:43;;;;;;;6.43;6.03;;;26.90;55.30;;;;;;5008414;28;20421;-69
2021/08/09 10:38:15;;;;;;;6.53;6.23;;;27.10;56.30;;;;;;4998162;28;20446;-68
2021/08/09 10:40:44;;;;;;;6.83;6.43;;;27.60;54.80;;;;;;4996591;28;20520;-69
2021/08/09 10:43:11;;;;;;;7.17;6.77;;;27.60;54.30;;;;;;4998025;28;20456;-68
2021/08/09 10:45:48;;;;;;;7.10;6.80;;;27.50;55.90;;;;;;4998013;28;20435;-68
2021/08/09 10:48:43;;;;;;;7.00;6.70;;;27.60;55.00;;;;;;4998007;28;20424;-69
2021/08/09 10:51:10;;;;;;;6.90;6.60;;;27.50;55.10;;;;;;4997395;28;20531;-70
2021/08/09 10:53:43;;;;;;;6.90;6.60;;;27.40;55.10;;;;;;4998029;28;20461;-68
2021/08/09 10:56:44;;;;;;;6.17;5.97;;;27.50;56.40;;;;;;4995383;28;20792;-68
2021/08/09 10:59:37;;;;;;;6.60;6.30;;;27.70;54.70;;;;;;4990817;28;20491;-67
2021/08/09 11:02:05;;;;;;;7.20;6.90;;;28.10;54.70;;;;;;4982684;28;20425;-68
2021/08/09 11:04:32;;;;;;;6.90;6.60;;;28.50;53.90;;;;;;4993579;28;20914;-68
2021/08/09 11:07:15;;;;;;;7.30;6.90;;;28.30;54.20;;;;;;4984968;28;20487;-69
2021/08/09 11:09:44;;;;;;;7.60;7.10;;;28.00;53.30;;;;;;4998521;28;20486;-67
2021/08/09 11:12:23;;;;;;;7.03;6.73;;;27.50;55.30;;;;;;4998770;28;20454;-68
2021/08/09 11:15:11;;;;;;;6.50;6.20;;;27.20;56.90;;;;;;5010460;28;20442;-68
2021/08/09 11:17:52;;;;;;;6.80;6.40;;;27.40;57.10;;;;;;5000494;28;20437;-69
2021/08/09 11:20:24;;;;;;;6.80;6.50;;;27.70;57.00;;;;;;5003886;28;20438;-70
2021/08/09 11:23:10;;;;;;;6.50;6.20;;;27.90;55.70;;;;;;5002757;28;20871;-67
2021/08/09 11:25:48;;;;;;;7.20;6.80;;;27.70;55.00;;;;;;4995908;28;20757;-69
2021/08/09 11:28:23;;;;;;;7.17;6.87;;;27.50;56.50;;;;;;5000479;28;20439;-68
2021/08/09 11:30:53;;;;;;;6.90;6.50;;;27.50;57.40;;;;;;5001578;28;20451;-68
2021/08/09 11:33:26;;;;;;;6.47;6.27;;;27.90;55.10;;;;;;5001098;28;20456;-71
2021/08/09 11:36:04;;;;;;;6.00;5.80;;;28.20;54.20;;;;;;5004910;28;20481;-68
2021/08/09 11:38:55;;;;;;;6.50;6.20;;;28.30;54.10;;;;;;4994001;28;20477;-68
2021/08/09 11:41:28;;;;;;;6.50;6.30;;;28.40;54.50;;;;;;4993344;28;20430;-68
2021/08/09 11:44:10;;;;;;;6.83;6.53;;;28.10;53.60;;;;;;5002071;28;20448;-68
2021/08/09 11:46:46;;;;;;;6.67;6.47;;;27.80;54.70;;;;;;5001872;28;20444;-68
2021/08/09 11:49:14;;;;;;;7.43;6.93;;;27.80;54.80;;;;;;5002814;28;20442;-68
2021/08/09 11:51:41;;;;;;;7.33;7.03;;;28.00;55.20;;;;;;5033917;28;20482;-68
2021/08/09 11:54:08;;;;;;;6.87;6.57;;;28.20;55.20;;;;;;5001561;28;20443;-68
2021/08/09 11:56:35;;;;;;;7.23;6.93;;;28.10;53.30;;;;;;4987454;28;20445;-68
2021/08/09 11:59:17;;;;;;;7.10;6.80;;;28.00;54.20;;;;;;4987845;28;20641;-68
2021/08/09 12:01:47;;;;;;;6.47;5.93;;;27.90;54.60;;;;;;4997949;28;20442;-67
2021/08/09 12:04:17;;;;;;;6.60;6.00;;;27.70;53.90;;;;;;5000271;28;20697;-67
2021/08/09 12:06:45;;;;;;;6.80;6.50;;;27.20;54.90;;;;;;4990623;28;20785;-66
2021/08/09 12:09:13;;;;;;;6.93;6.53;;;27.00;56.00;;;;;;4988246;28;20414;-66
2021/08/09 12:11:41;;;;;;;6.63;6.33;;;26.40;57.20;;;;;;4993277;28;20490;-66
2021/08/09 12:14:13;;;;;;;6.37;5.93;;;26.00;58.40;;;;;;5002253;28;20440;-66
2021/08/09 12:16:45;;;;;;;6.90;6.50;;;25.80;59.00;;;;;;5005189;28;20433;-65
2021/08/09 12:19:15;;;;;;;6.33;6.13;;;25.90;59.60;;;;;;4994327;28;20494;-64
2021/08/09 12:21:43;;;;;;;6.63;6.33;;;26.40;59.20;;;;;;5005175;28;20493;-66
2021/08/09 12:24:23;;;;;;;7.00;6.40;;;26.80;57.40;;;;;;4994582;28;20410;-68
2021/08/09 12:26:52;;;;;;;6.30;6.10;;;27.10;57.40;;;;;;5001025;28;20442;-66
2021/08/09 12:29:21;;;;;;;6.20;6.00;;;27.20;57.50;;;;;;5022190;28;20452;-67
2021/08/09 12:31:49;;;;;;;6.20;6.00;;;27.10;56.40;;;;;;4996865;28;20811;-67
2021/08/09 12:34:20;;;;;;;6.13;5.90;;;27.00;56.70;;;;;;4996491;28;20411;-66
2021/08/09 12:36:50;;;;;;;6.60;6.30;;;26.90;56.90;;;;;;4997302;28;20453;-66
2021/08/09 12:39:35;;;;;;;6.30;6.10;;;27.00;57.00;;;;;;4992500;28;20449;-68
2021/08/09 12:42:15;;;;;;;8.30;7.90;;;27.30;56.60;;;;;;5000823;28;20606;-67
2021/08/09 12:44:44;;;;;;;7.63;7.27;;;27.80;55.70;;;;;;4998660;28;20759;-67
2021/08/09 12:47:11;;;;;;;6.67;6.37;;;27.80;56.40;;;;;;5004776;28;20472;-67
2021/08/09 12:49:38;;;;;;;7.20;6.80;;;28.10;55.90;;;;;;4998907;28;20438;-67
2021/08/09 12:52:06;;;;;;;5.97;5.67;;;28.20;55.60;;;;;;5002689;28;20479;-66
2021/08/09 12:54:33;;;;;;;6.87;6.57;;;27.90;55.90;;;;;;5000097;28;20521;-66
2021/08/09 12:57:00;;;;;;;6.47;6.17;;;27.50;56.50;;;;;;4998316;28;20437;-66
2021/08/09 12:59:28;;;;;;;7.10;6.83;;;27.10;56.50;;;;;;5004182;28;20444;-66
2021/08/09 13:01:55;;;;;;;6.77;6.37;;;26.90;57.10;;;;;;5037819;28;20437;-67